createdAt,value
2022-09-07T00:00:47.966Z,22.38
2022-09-07T00:03:16.020Z,26.73
2022-09-07T00:05:45.554Z,33.25
2022-09-07T00:08:14.526Z,21.15
2022-09-07T00:10:42.197Z,27.73
2022-09-07T00:13:10.424Z,29.45
2022-09-07T00:18:08.377Z,30.52
2022-09-07T00:20:36.712Z,25.75
2022-09-07T00:23:04.275Z,27.63
2022-09-07T00:25:32.103Z,33.47
2022-09-07T00:27:59.839Z,33.25
2022-09-07T00:30:27.476Z,24.52
2022-09-07T00:32:54.980Z,23.02
2022-09-07T00:35:22.494Z,27.33
2022-09-07T00:37:50.068Z,37.47
2022-09-07T00:40:17.877Z,34.95
2022-09-07T00:42:45.515Z,35.72
2022-09-07T00:45:16.838Z,33.90
2022-09-07T00:47:51.540Z,36.28
2022-09-07T00:50:44.100Z,31.02
2022-09-07T00:53:17.556Z,32.78
2022-09-07T00:55:46.817Z,37.42
2022-09-07T00:58:14.807Z,31.75
2022-09-07T01:00:44.884Z,25.95
2022-09-07T01:03:13.814Z,35.45
2022-09-07T01:05:46.249Z,40.30
2022-09-07T01:08:14.740Z,36.03
2022-09-07T01:10:42.306Z,35.13
2022-09-07T01:13:10.214Z,31.30
2022-09-07T01:15:54.492Z,31.70
2022-09-07T01:18:45.506Z,31.02
2022-09-07T01:21:26.854Z,30.85
2022-09-07T01:24:12.623Z,25.05
2022-09-07T01:26:59.860Z,29.38
2022-09-07T01:29:45.845Z,27.75
2022-09-07T01:32:19.229Z,28.15
2022-09-07T01:34:52.364Z,28.23
2022-09-07T01:37:46.839Z,27.42
2022-09-07T01:40:30.355Z,30.92
2022-09-07T01:43:06.859Z,29.30
2022-09-07T01:45:37.010Z,30.50
2022-09-07T01:48:10.959Z,29.88
2022-09-07T01:50:58.095Z,25.38
2022-09-07T01:53:39.834Z,29.23
2022-09-07T01:56:45.574Z,31.98
2022-09-07T01:59:25.719Z,30.23
2022-09-07T02:02:12.664Z,31.55
2022-09-07T02:04:45.816Z,34.65
2022-09-07T02:07:20.915Z,30.63
2022-09-07T02:10:00.988Z,33.65
2022-09-07T02:12:40.889Z,34.22
2022-09-07T02:15:16.573Z,28.25
2022-09-07T02:17:51.681Z,30.08
2022-09-07T02:20:26.933Z,33.92
2022-09-07T02:22:58.241Z,25.63
2022-09-07T02:25:39.129Z,33.20
2022-09-07T02:28:14.637Z,44.85
2022-09-07T02:30:42.806Z,30.15
2022-09-07T02:35:38.001Z,43.85
2022-09-07T02:38:08.033Z,44.22
2022-09-07T02:40:35.775Z,40.42
2022-09-07T02:43:07.340Z,40.50
2022-09-07T02:46:15.838Z,46.13
2022-09-07T02:49:01.807Z,32.75
2022-09-07T02:51:50.645Z,43.38
2022-09-07T02:54:29.936Z,33.25
2022-09-07T02:57:17.776Z,35.53
2022-09-07T03:00:11.261Z,37.42
2022-09-07T03:02:48.970Z,39.80
2022-09-07T03:05:46.223Z,36.67
2022-09-07T03:08:34.564Z,36.80
2022-09-07T03:11:04.958Z,41.92
2022-09-07T03:13:32.829Z,38.47
2022-09-07T03:16:00.866Z,43.38
2022-09-07T03:18:28.932Z,38.95
2022-09-07T03:20:56.857Z,44.50
2022-09-07T03:23:24.434Z,52.92
2022-09-07T03:25:52.698Z,36.60
2022-09-07T03:28:20.175Z,48.20
2022-09-07T03:30:47.999Z,59.65
2022-09-07T03:33:16.350Z,44.70
2022-09-07T03:35:57.968Z,47.53
2022-09-07T03:38:25.482Z,35.15
2022-09-07T03:41:05.043Z,41.95
2022-09-07T03:43:33.400Z,52.33
2022-09-07T03:46:03.387Z,41.85
2022-09-07T03:48:32.817Z,39.78
2022-09-07T03:51:06.128Z,37.78
2022-09-07T03:53:36.591Z,50.53
2022-09-07T03:56:10.382Z,42.80
2022-09-07T03:58:38.224Z,46.42
2022-09-07T04:01:12.506Z,38.58
2022-09-07T04:03:40.033Z,45.15
2022-09-07T04:06:07.839Z,50.53
2022-09-07T04:08:36.783Z,55.00
2022-09-07T04:11:06.184Z,45.95
2022-09-07T04:13:37.189Z,44.05
2022-09-07T04:16:20.468Z,37.90
2022-09-07T04:18:51.871Z,45.67
2022-09-07T04:21:19.417Z,49.75
2022-09-07T04:23:47.372Z,48.80
2022-09-07T04:26:29.304Z,51.25
2022-09-07T04:28:57.811Z,49.58
2022-09-07T04:31:25.746Z,49.90
2022-09-07T04:33:54.322Z,37.83
2022-09-07T04:36:24.666Z,41.85
2022-09-07T04:39:01.023Z,36.08
2022-09-07T04:41:29.866Z,37.65
2022-09-07T04:43:59.697Z,33.60
2022-09-07T04:46:35.735Z,34.40
2022-09-07T04:49:06.719Z,32.60
2022-09-07T04:51:35.139Z,34.30
2022-09-07T04:54:03.965Z,30.58
2022-09-07T04:56:32.446Z,31.88
2022-09-07T04:59:02.018Z,39.25
2022-09-07T05:01:29.932Z,37.67
2022-09-07T05:04:00.467Z,32.40
2022-09-07T05:06:28.770Z,35.80
2022-09-07T05:08:58.195Z,36.80
2022-09-07T05:11:29.480Z,34.90
2022-09-07T05:14:02.247Z,44.08
2022-09-07T05:16:31.219Z,41.88
2022-09-07T05:19:01.654Z,35.92
2022-09-07T05:21:31.672Z,39.47
2022-09-07T05:24:01.099Z,51.92
2022-09-07T05:26:30.659Z,50.38
2022-09-07T05:31:46.784Z,48.10
2022-09-07T05:34:31.456Z,58.58
2022-09-07T05:36:59.916Z,48.17
2022-09-07T05:39:28.188Z,47.50
2022-09-07T05:41:55.999Z,53.28
2022-09-07T05:47:11.162Z,59.65
2022-09-07T05:49:38.649Z,63.85
2022-09-07T05:52:06.356Z,62.75
2022-09-07T05:54:33.887Z,63.30
2022-09-07T05:57:03.561Z,70.50
2022-09-07T05:59:31.184Z,66.45
2022-09-07T06:01:58.882Z,55.63
2022-09-07T06:04:26.584Z,54.10
2022-09-07T06:12:29.404Z,56.28
2022-09-07T06:14:56.925Z,54.72
2022-09-07T06:17:24.505Z,54.47
2022-09-07T06:19:52.178Z,56.85
2022-09-07T06:22:19.674Z,49.15
2022-09-07T06:24:47.190Z,50.50
2022-09-07T06:27:14.666Z,57.20
2022-09-07T06:29:42.108Z,49.53
2022-09-07T06:34:57.058Z,54.90
2022-09-07T06:37:24.656Z,54.17
2022-09-07T06:39:52.356Z,49.95
2022-09-07T06:42:19.908Z,56.80
2022-09-07T06:44:52.870Z,47.70
2022-09-07T06:47:20.327Z,51.92
2022-09-07T06:49:47.888Z,54.90
2022-09-07T06:52:17.787Z,49.65
2022-09-07T06:55:01.229Z,61.42
2022-09-07T06:57:29.206Z,52.90
2022-09-07T06:59:56.710Z,52.17
2022-09-07T07:02:24.237Z,60.22
2022-09-07T07:04:51.893Z,53.78
2022-09-07T07:07:19.554Z,61.55
2022-09-07T07:09:49.677Z,48.22
2022-09-07T07:14:45.170Z,46.80
2022-09-07T07:17:13.324Z,41.22
2022-09-07T07:19:40.914Z,49.47
2022-09-07T07:22:23.933Z,47.63
2022-09-07T07:24:56.176Z,43.38
2022-09-07T07:27:23.888Z,40.40
2022-09-07T07:29:52.657Z,41.90
2022-09-07T07:32:20.200Z,39.90
2022-09-07T07:34:48.092Z,42.92
2022-09-07T07:37:16.141Z,41.42
2022-09-07T07:42:42.953Z,49.40
2022-09-07T07:47:59.026Z,46.20
2022-09-07T07:50:34.252Z,53.95
2022-09-07T07:55:54.288Z,49.47
2022-09-07T07:58:26.062Z,43.28
2022-09-07T08:01:06.145Z,49.20
2022-09-07T08:03:39.166Z,44.38
2022-09-07T08:06:12.234Z,38.45
2022-09-07T08:08:43.324Z,41.67
2022-09-07T08:11:13.782Z,39.55
2022-09-07T08:13:43.293Z,38.03
2022-09-07T08:16:11.571Z,35.13
2022-09-07T08:21:14.688Z,42.55
2022-09-07T08:23:43.010Z,32.63
2022-09-07T08:26:11.019Z,44.05
2022-09-07T08:28:40.865Z,36.85
2022-09-07T08:31:11.123Z,32.38
2022-09-07T08:33:39.375Z,44.15
2022-09-07T08:38:37.333Z,37.78
2022-09-07T08:41:36.832Z,33.08
2022-09-07T08:44:16.212Z,32.28
2022-09-07T08:47:07.184Z,30.13
2022-09-07T08:49:50.578Z,32.88
2022-09-07T08:52:29.090Z,35.47
2022-09-07T08:55:20.345Z,35.75
2022-09-07T08:58:27.089Z,35.70
2022-09-07T09:06:48.807Z,27.08
2022-09-07T09:09:16.380Z,34.30
2022-09-07T09:12:11.747Z,31.52
2022-09-07T09:14:45.580Z,28.17
2022-09-07T09:17:31.751Z,27.05
2022-09-07T09:20:29.207Z,30.90
2022-09-07T09:23:02.759Z,27.25
2022-09-07T09:25:53.731Z,28.15
2022-09-07T09:28:22.109Z,29.02
2022-09-07T09:30:50.369Z,29.73
2022-09-07T09:33:20.873Z,27.52
2022-09-07T09:35:51.334Z,28.33
2022-09-07T09:38:32.503Z,17.73
2022-09-07T09:41:14.888Z,24.42
2022-09-07T09:43:57.193Z,25.23
2022-09-07T09:46:41.682Z,21.70
2022-09-07T09:49:39.013Z,19.60
2022-09-07T09:53:14.886Z,26.20
2022-09-07T09:56:05.624Z,23.20
2022-09-07T09:59:56.784Z,19.88
2022-09-07T10:05:26.515Z,21.13
2022-09-07T10:08:15.943Z,22.55
2022-09-07T10:11:10.003Z,24.67
2022-09-07T10:13:54.980Z,22.70
2022-09-07T10:16:42.283Z,22.55
2022-09-07T10:19:28.738Z,22.00
2022-09-07T10:22:04.150Z,20.92
2022-09-07T10:24:38.611Z,28.10
2022-09-07T10:27:41.454Z,25.38
2022-09-07T10:30:16.713Z,24.08
2022-09-07T10:33:03.060Z,23.67
2022-09-07T10:35:40.243Z,18.88
2022-09-07T10:38:20.330Z,26.80
2022-09-07T10:41:09.975Z,24.80
2022-09-07T10:43:50.372Z,23.73
2022-09-07T10:49:33.985Z,25.02
2022-09-07T10:52:24.661Z,37.25
2022-09-07T10:55:32.446Z,25.30
2022-09-07T10:59:01.316Z,34.00
2022-09-07T11:01:22.503Z,26.38
2022-09-07T11:03:59.070Z,27.30
2022-09-07T11:06:34.931Z,28.95
2022-09-07T11:09:30.004Z,27.35
2022-09-07T11:12:04.274Z,28.80
2022-09-07T11:14:41.113Z,24.45
2022-09-07T11:17:24.661Z,22.58
2022-09-07T11:20:08.470Z,29.65
2022-09-07T11:22:49.600Z,20.50
2022-09-07T11:25:35.598Z,19.08
2022-09-07T11:28:17.221Z,20.67
2022-09-07T11:31:00.637Z,20.55
2022-09-07T11:34:23.404Z,23.02
2022-09-07T11:36:44.346Z,20.25
2022-09-07T11:39:37.430Z,21.65
2022-09-07T11:45:42.088Z,18.25
2022-09-07T11:48:30.302Z,17.45
2022-09-07T11:51:13.132Z,21.50
2022-09-07T11:53:49.822Z,24.08
2022-09-07T11:56:39.389Z,19.83
2022-09-07T11:59:37.092Z,18.73
2022-09-07T12:02:11.484Z,21.02
2022-09-07T12:05:11.164Z,15.65
2022-09-07T12:08:04.707Z,17.40
2022-09-07T12:10:59.348Z,22.38
2022-09-07T12:13:46.807Z,20.17
2022-09-07T12:16:37.927Z,14.38
2022-09-07T12:19:25.809Z,10.45
2022-09-07T12:21:53.491Z,13.32
2022-09-07T12:24:41.321Z,10.15
2022-09-07T12:29:36.696Z,20.02
2022-09-07T12:34:55.351Z,15.63
2022-09-07T12:37:38.465Z,14.20
2022-09-07T12:40:31.992Z,19.00
2022-09-07T12:43:14.823Z,18.88
2022-09-07T12:45:42.514Z,15.90
2022-09-07T12:48:32.441Z,15.95
2022-09-07T12:51:16.311Z,21.80
2022-09-07T12:54:07.180Z,19.90
2022-09-07T12:56:37.552Z,24.92
2022-09-07T12:59:19.771Z,17.90
2022-09-07T13:02:16.374Z,25.13
2022-09-07T13:04:55.861Z,15.95
2022-09-07T13:07:32.161Z,14.52
2022-09-07T13:10:16.692Z,14.65
2022-09-07T13:12:57.207Z,19.45
2022-09-07T13:15:50.053Z,18.88
2022-09-07T13:18:26.619Z,15.98
2022-09-07T13:21:09.958Z,19.77
2022-09-07T13:23:53.129Z,20.33
2022-09-07T13:27:15.402Z,17.75
2022-09-07T13:30:07.505Z,16.02
2022-09-07T13:38:03.127Z,15.95
2022-09-07T13:40:38.421Z,17.25
2022-09-07T13:43:12.413Z,15.25
2022-09-07T13:45:59.805Z,16.80
2022-09-07T13:48:37.583Z,18.70
2022-09-07T13:51:13.169Z,17.42
2022-09-07T13:53:56.043Z,14.68
2022-09-07T13:56:32.989Z,16.48
2022-09-07T13:59:12.947Z,11.55
2022-09-07T14:01:45.510Z,18.98
2022-09-07T14:07:57.240Z,22.95
2022-09-07T14:10:26.485Z,18.45
2022-09-07T14:13:11.619Z,14.82
2022-09-07T14:15:43.948Z,16.52
2022-09-07T14:18:22.522Z,18.17
2022-09-07T14:20:52.323Z,15.13
2022-09-07T14:23:28.977Z,22.10
2022-09-07T14:26:18.371Z,17.33
2022-09-07T14:28:51.661Z,16.73
2022-09-07T14:31:24.981Z,18.38
2022-09-07T14:33:59.153Z,17.92
2022-09-07T14:36:46.470Z,17.65
2022-09-07T14:39:21.044Z,14.98
2022-09-07T14:41:51.545Z,13.73
2022-09-07T14:44:36.143Z,17.30
2022-09-07T14:47:33.171Z,13.95
2022-09-07T14:50:06.271Z,15.13
2022-09-07T14:53:33.890Z,15.75
2022-09-07T14:58:15.429Z,15.38
2022-09-07T15:03:40.125Z,16.67
2022-09-07T15:07:00.994Z,18.90
2022-09-07T15:09:00.743Z,18.15
2022-09-07T15:11:33.877Z,18.02
2022-09-07T15:14:23.542Z,17.80
2022-09-07T15:19:50.417Z,15.13
2022-09-07T15:24:49.895Z,17.88
2022-09-07T15:27:24.344Z,16.38
2022-09-07T15:29:51.972Z,13.63
2022-09-07T15:32:19.713Z,16.20
2022-09-07T15:34:49.734Z,13.52
2022-09-07T15:40:21.380Z,22.17
2022-09-07T15:43:16.408Z,19.98
2022-09-07T15:45:37.257Z,14.65
2022-09-07T15:48:07.200Z,16.75
2022-09-07T15:50:35.184Z,17.63
2022-09-07T15:56:03.185Z,18.63
2022-09-07T15:58:31.160Z,16.80
2022-09-07T16:03:53.050Z,15.80
2022-09-07T16:06:29.588Z,18.02
2022-09-07T16:08:57.673Z,17.23
2022-09-07T16:11:30.392Z,16.80
2022-09-07T16:14:03.018Z,13.80
2022-09-07T16:19:20.719Z,17.25
2022-09-07T16:21:48.624Z,18.20
2022-09-07T16:24:17.402Z,14.73
2022-09-07T16:26:55.514Z,19.08
2022-09-07T16:29:26.073Z,15.65
2022-09-07T16:35:07.584Z,15.63
2022-09-07T16:37:35.584Z,20.52
2022-09-07T16:40:04.403Z,15.52
2022-09-07T16:42:38.625Z,17.23
2022-09-07T16:47:56.781Z,15.93
2022-09-07T16:50:24.554Z,16.98
2022-09-07T16:52:56.284Z,22.13
2022-09-07T16:55:33.603Z,20.08
2022-09-07T17:00:49.722Z,18.27
2022-09-07T17:03:17.365Z,20.40
2022-09-07T17:05:46.923Z,18.77
2022-09-07T17:08:14.634Z,20.88
2022-09-07T17:10:46.325Z,16.77
2022-09-07T17:13:18.138Z,19.08
2022-09-07T17:15:48.591Z,15.65
2022-09-07T17:19:28.517Z,16.67
2022-09-07T17:21:10.693Z,20.67
2022-09-07T17:24:07.488Z,13.95
2022-09-07T17:26:35.469Z,17.85
2022-09-07T17:29:03.200Z,16.83
2022-09-07T17:34:25.987Z,17.48
2022-09-07T17:36:53.643Z,18.92
2022-09-07T17:39:21.472Z,17.10
2022-09-07T17:41:52.594Z,14.77
2022-09-07T17:44:22.572Z,20.48
2022-09-07T17:46:50.494Z,15.63
2022-09-07T17:49:18.461Z,19.45
2022-09-07T17:51:46.650Z,20.15
2022-09-07T17:56:44.897Z,23.58
2022-09-07T18:02:06.472Z,23.52
2022-09-07T18:04:35.761Z,24.83
2022-09-07T18:07:03.586Z,69.68
2022-09-07T18:09:35.984Z,39.05
2022-09-07T18:12:04.392Z,19.83
2022-09-07T18:14:34.953Z,17.30
2022-09-07T18:17:02.604Z,23.08
2022-09-07T18:19:34.695Z,19.48
2022-09-07T18:22:03.987Z,20.77
2022-09-07T18:24:36.575Z,20.75
2022-09-07T18:27:08.270Z,19.77
2022-09-07T18:32:10.329Z,25.63
2022-09-07T18:34:40.724Z,20.73
2022-09-07T18:37:12.057Z,24.33
2022-09-07T18:39:40.898Z,22.27
2022-09-07T18:42:09.675Z,22.35
2022-09-07T18:47:29.416Z,23.80
2022-09-07T18:59:06.346Z,25.17
2022-09-07T19:07:59.370Z,26.63
2022-09-07T19:11:00.095Z,20.45
2022-09-07T19:13:31.371Z,22.45
2022-09-07T19:16:12.572Z,21.88
2022-09-07T19:18:54.583Z,21.73
2022-09-07T19:21:26.315Z,26.13
2022-09-07T19:24:26.713Z,21.35
2022-09-07T19:33:25.509Z,22.83
2022-09-07T19:36:51.948Z,21.75
2022-09-07T19:40:38.679Z,17.08
2022-09-07T19:44:11.847Z,25.90
2022-09-07T19:47:19.841Z,22.35
2022-09-07T19:50:49.343Z,18.52
2022-09-07T19:57:21.777Z,17.15
2022-09-07T20:00:41.849Z,21.40
2022-09-07T20:19:27.661Z,22.98
2022-09-07T20:55:04.962Z,7.47
2022-09-07T21:37:25.032Z,6.88
2022-09-07T22:06:23.333Z,8.27
2022-09-07T22:08:53.476Z,5.95
2022-09-07T22:11:23.115Z,9.00
2022-09-07T22:13:58.601Z,10.00
2022-09-07T22:16:26.865Z,4.78
2022-09-07T22:21:27.428Z,6.65
2022-09-07T22:24:03.511Z,5.00
2022-09-07T22:26:39.288Z,7.35
2022-09-07T22:29:08.510Z,7.60
2022-09-07T22:31:38.121Z,6.35
2022-09-07T22:34:12.648Z,9.75
2022-09-07T22:36:43.254Z,11.25
2022-09-07T22:39:18.972Z,9.18
2022-09-07T22:41:47.407Z,5.82
2022-09-07T22:44:17.007Z,6.78
2022-09-07T22:46:46.626Z,5.25
2022-09-07T22:49:16.162Z,6.18
2022-09-07T22:51:45.056Z,7.68
2022-09-07T22:54:12.898Z,5.57
2022-09-07T22:56:40.481Z,9.38
2022-09-07T22:59:09.250Z,7.97
2022-09-07T23:01:37.894Z,4.82
2022-09-07T23:04:06.743Z,10.73
2022-09-07T23:06:39.315Z,10.35
2022-09-07T23:09:09.667Z,9.63
2022-09-07T23:11:37.821Z,7.95
2022-09-07T23:16:34.735Z,5.50
2022-09-07T23:21:30.425Z,4.90
2022-09-07T23:24:00.962Z,10.20
2022-09-07T23:26:31.029Z,10.65
2022-09-07T23:29:00.820Z,9.45
2022-09-07T23:31:31.085Z,9.00
2022-09-07T23:34:25.755Z,9.77
2022-09-07T23:37:01.855Z,11.27
2022-09-07T23:40:17.095Z,10.25
2022-09-07T23:42:50.225Z,7.18
2022-09-07T23:46:25.306Z,10.52
2022-09-07T23:49:48.732Z,14.60
2022-09-07T23:52:35.950Z,11.23
2022-09-07T23:55:11.467Z,12.40
2022-09-07T23:58:07.005Z,9.57
